Terminal Aerodrome Forecast
Issued by NWS Sioux Falls, SD

Home | Current Version | Previous Version | Text Only | Print | Product List | Glossary Off
Versions: 1 2 3 4 5 6 7 8 9 10 11 12 13

254
FTUS43 KFSD 301731
TAFHON
TAF
KHON 301731Z 3018/0118 04013G19KT P6SM SCT100 OVC200
     FM010000 03013G19KT P6SM VCSH OVC060
     FM010300 02012KT P6SM VCSH OVC050
     FM011300 36012G18KT P6SM BKN030
     FM011500 36014G22KT P6SM BKN035=

USA.gov is the U.S. government's official web portal to all federal, state and local government web resources and services.